sensor_id;sensor_type;location;lat;lon;timestamp;temperature;humidity
31133;DHT22;17779;50.942;4.026;2023-08-31T00:00:12;13.90;99.90
31133;DHT22;17779;50.942;4.026;2023-08-31T00:02:39;14.00;99.90
31133;DHT22;17779;50.942;4.026;2023-08-31T00:05:06;14.00;99.90
31133;DHT22;17779;50.942;4.026;2023-08-31T00:07:31;14.00;99.90
31133;DHT22;17779;50.942;4.026;2023-08-31T00:09:57;14.10;99.90
31133;DHT22;17779;50.942;4.026;2023-08-31T00:12:24;14.10;99.90
31133;DHT22;17779;50.942;4.026;2023-08-31T00:14:49;14.10;99.90
31133;DHT22;17779;50.942;4.026;2023-08-31T00:17:16;14.00;99.90
31133;DHT22;17779;50.942;4.026;2023-08-31T00:19:43;13.90;99.90
31133;DHT22;17779;50.942;4.026;2023-08-31T00:22:08;13.90;99.90
31133;DHT22;17779;50.942;4.026;2023-08-31T00:24:34;13.90;99.90
31133;DHT22;17779;50.942;4.026;2023-08-31T00:27:04;14.00;99.90
31133;DHT22;17779;50.942;4.026;2023-08-31T00:29:33;13.90;99.90
31133;DHT22;17779;50.942;4.026;2023-08-31T00:31:58;13.90;99.90
31133;DHT22;17779;50.942;4.026;2023-08-31T00:34:24;13.80;99.90
31133;DHT22;17779;50.942;4.026;2023-08-31T00:36:50;13.70;99.90
31133;DHT22;17779;50.942;4.026;2023-08-31T00:39:15;13.80;99.90
31133;DHT22;17779;50.942;4.026;2023-08-31T00:41:46;13.70;99.90
31133;DHT22;17779;50.942;4.026;2023-08-31T00:44:12;13.70;99.90
31133;DHT22;17779;50.942;4.026;2023-08-31T00:46:37;13.70;99.90
31133;DHT22;17779;50.942;4.026;2023-08-31T00:49:04;13.70;99.90
31133;DHT22;17779;50.942;4.026;2023-08-31T00:51:36;13.80;99.90
31133;DHT22;17779;50.942;4.026;2023-08-31T00:54:03;13.80;99.90
31133;DHT22;17779;50.942;4.026;2023-08-31T00:56:31;13.90;99.90
31133;DHT22;17779;50.942;4.026;2023-08-31T00:58:56;13.90;99.90
31133;DHT22;17779;50.942;4.026;2023-08-31T01:01:27;13.90;99.90
31133;DHT22;17779;50.942;4.026;2023-08-31T01:11:30;13.30;99.90
31133;DHT22;17779;50.942;4.026;2023-08-31T01:14:06;13.30;99.90
31133;DHT22;17779;50.942;4.026;2023-08-31T01:16:33;13.20;99.90
31133;DHT22;17779;50.942;4.026;2023-08-31T01:19:00;13.40;99.90
31133;DHT22;17779;50.942;4.026;2023-08-31T01:21:27;13.40;99.90
31133;DHT22;17779;50.942;4.026;2023-08-31T01:23:56;13.40;99.90
31133;DHT22;17779;50.942;4.026;2023-08-31T01:26:23;13.30;99.90
31133;DHT22;17779;50.942;4.026;2023-08-31T01:28:49;13.20;99.90
31133;DHT22;17779;50.942;4.026;2023-08-31T01:31:15;13.20;99.90
31133;DHT22;17779;50.942;4.026;2023-08-31T01:33:42;13.20;99.90
31133;DHT22;17779;50.942;4.026;2023-08-31T01:36:17;13.20;99.90
31133;DHT22;17779;50.942;4.026;2023-08-31T01:38:47;13.20;99.90
31133;DHT22;17779;50.942;4.026;2023-08-31T01:41:14;13.20;99.90
31133;DHT22;17779;50.942;4.026;2023-08-31T01:43:43;13.30;99.90
31133;DHT22;17779;50.942;4.026;2023-08-31T01:46:09;13.30;99.90
31133;DHT22;17779;50.942;4.026;2023-08-31T01:48:39;13.40;99.90
31133;DHT22;17779;50.942;4.026;2023-08-31T01:51:05;13.40;99.90
31133;DHT22;17779;50.942;4.026;2023-08-31T01:53:31;13.30;99.90
31133;DHT22;17779;50.942;4.026;2023-08-31T01:55:56;13.10;99.90
31133;DHT22;17779;50.942;4.026;2023-08-31T01:58:22;13.20;99.90
31133;DHT22;17779;50.942;4.026;2023-08-31T02:00:48;13.20;99.90
31133;DHT22;17779;50.942;4.026;2023-08-31T02:03:13;13.20;99.90
31133;DHT22;17779;50.942;4.026;2023-08-31T02:05:39;13.20;99.90
31133;DHT22;17779;50.942;4.026;2023-08-31T02:08:05;13.20;99.90
31133;DHT22;17779;50.942;4.026;2023-08-31T02:10:30;13.20;99.90
31133;DHT22;17779;50.942;4.026;2023-08-31T02:12:56;13.40;99.90
31133;DHT22;17779;50.942;4.026;2023-08-31T02:15:23;13.40;99.90
31133;DHT22;17779;50.942;4.026;2023-08-31T02:17:48;13.50;99.90
31133;DHT22;17779;50.942;4.026;2023-08-31T02:20:14;13.50;99.90
31133;DHT22;17779;50.942;4.026;2023-08-31T02:22:42;13.60;99.90
31133;DHT22;17779;50.942;4.026;2023-08-31T02:25:08;13.50;99.90
31133;DHT22;17779;50.942;4.026;2023-08-31T02:27:34;13.40;99.90
31133;DHT22;17779;50.942;4.026;2023-08-31T02:29:59;13.50;99.90
31133;DHT22;17779;50.942;4.026;2023-08-31T02:32:27;13.40;99.90
31133;DHT22;17779;50.942;4.026;2023-08-31T02:34:52;13.30;99.90
31133;DHT22;17779;50.942;4.026;2023-08-31T02:37:18;13.30;99.90
31133;DHT22;17779;50.942;4.026;2023-08-31T02:39:44;13.30;99.90
31133;DHT22;17779;50.942;4.026;2023-08-31T02:42:09;13.30;99.90
31133;DHT22;17779;50.942;4.026;2023-08-31T02:44:37;13.30;99.90
31133;DHT22;17779;50.942;4.026;2023-08-31T02:47:03;13.40;99.90
31133;DHT22;17779;50.942;4.026;2023-08-31T02:49:28;13.40;99.90
31133;DHT22;17779;50.942;4.026;2023-08-31T02:51:54;13.30;99.90
31133;DHT22;17779;50.942;4.026;2023-08-31T02:54:21;13.20;99.90
31133;DHT22;17779;50.942;4.026;2023-08-31T02:56:47;13.30;99.90
31133;DHT22;17779;50.942;4.026;2023-08-31T02:59:12;13.10;99.90
31133;DHT22;17779;50.942;4.026;2023-08-31T03:01:39;13.00;99.90
31133;DHT22;17779;50.942;4.026;2023-08-31T03:04:06;13.00;99.90
31133;DHT22;17779;50.942;4.026;2023-08-31T03:06:33;13.00;99.90
31133;DHT22;17779;50.942;4.026;2023-08-31T03:08:59;13.00;99.90
31133;DHT22;17779;50.942;4.026;2023-08-31T03:11:24;13.00;99.90
31133;DHT22;17779;50.942;4.026;2023-08-31T03:13:53;13.00;99.90
31133;DHT22;17779;50.942;4.026;2023-08-31T03:16:19;13.00;99.90
31133;DHT22;17779;50.942;4.026;2023-08-31T03:18:44;12.90;99.90
31133;DHT22;17779;50.942;4.026;2023-08-31T03:21:10;13.00;99.90
31133;DHT22;17779;50.942;4.026;2023-08-31T03:23:35;13.00;99.90
31133;DHT22;17779;50.942;4.026;2023-08-31T03:26:06;13.10;99.90
31133;DHT22;17779;50.942;4.026;2023-08-31T03:28:31;13.10;99.90
31133;DHT22;17779;50.942;4.026;2023-08-31T03:30:58;13.20;99.90
31133;DHT22;17779;50.942;4.026;2023-08-31T03:33:24;13.20;99.90
31133;DHT22;17779;50.942;4.026;2023-08-31T03:35:50;13.30;99.90
31133;DHT22;17779;50.942;4.026;2023-08-31T03:38:17;13.20;99.90
31133;DHT22;17779;50.942;4.026;2023-08-31T03:40:43;13.10;99.90
31133;DHT22;17779;50.942;4.026;2023-08-31T03:43:17;13.10;99.90
31133;DHT22;17779;50.942;4.026;2023-08-31T03:45:43;13.00;99.90
31133;DHT22;17779;50.942;4.026;2023-08-31T03:48:08;13.10;99.90
31133;DHT22;17779;50.942;4.026;2023-08-31T03:50:34;13.00;99.90
31133;DHT22;17779;50.942;4.026;2023-08-31T03:52:59;13.00;99.90
31133;DHT22;17779;50.942;4.026;2023-08-31T03:55:25;13.00;99.90
31133;DHT22;17779;50.942;4.026;2023-08-31T03:57:51;13.00;99.90
31133;DHT22;17779;50.942;4.026;2023-08-31T04:00:16;13.00;99.90
31133;DHT22;17779;50.942;4.026;2023-08-31T04:02:42;13.00;99.90
31133;DHT22;17779;50.942;4.026;2023-08-31T04:05:09;12.90;99.90
31133;DHT22;17779;50.942;4.026;2023-08-31T04:07:35;13.00;99.90
31133;DHT22;17779;50.942;4.026;2023-08-31T04:10:00;13.00;99.90
31133;DHT22;17779;50.942;4.026;2023-08-31T04:12:28;12.90;99.90
31133;DHT22;17779;50.942;4.026;2023-08-31T04:14:56;13.00;99.90
31133;DHT22;17779;50.942;4.026;2023-08-31T04:17:21;13.00;99.90
31133;DHT22;17779;50.942;4.026;2023-08-31T04:19:47;13.10;99.90
31133;DHT22;17779;50.942;4.026;2023-08-31T04:22:12;13.00;99.90
31133;DHT22;17779;50.942;4.026;2023-08-31T04:24:38;13.00;99.90
31133;DHT22;17779;50.942;4.026;2023-08-31T04:27:04;13.00;99.90
31133;DHT22;17779;50.942;4.026;2023-08-31T04:29:30;13.10;99.90
31133;DHT22;17779;50.942;4.026;2023-08-31T04:31:55;13.10;99.90
31133;DHT22;17779;50.942;4.026;2023-08-31T04:34:21;13.20;99.90
31133;DHT22;17779;50.942;4.026;2023-08-31T04:36:46;13.20;99.90
31133;DHT22;17779;50.942;4.026;2023-08-31T04:39:14;13.10;99.90
31133;DHT22;17779;50.942;4.026;2023-08-31T04:41:39;13.10;99.90
31133;DHT22;17779;50.942;4.026;2023-08-31T04:44:05;13.10;99.90
31133;DHT22;17779;50.942;4.026;2023-08-31T04:46:31;13.20;99.90
31133;DHT22;17779;50.942;4.026;2023-08-31T04:48:58;13.30;99.90
31133;DHT22;17779;50.942;4.026;2023-08-31T04:51:28;13.30;99.90
31133;DHT22;17779;50.942;4.026;2023-08-31T04:53:53;13.20;99.90
31133;DHT22;17779;50.942;4.026;2023-08-31T04:56:19;13.20;99.90
31133;DHT22;17779;50.942;4.026;2023-08-31T04:58:45;13.20;99.90
31133;DHT22;17779;50.942;4.026;2023-08-31T05:01:11;13.20;99.90
31133;DHT22;17779;50.942;4.026;2023-08-31T05:03:37;13.20;99.90
31133;DHT22;17779;50.942;4.026;2023-08-31T05:06:02;13.10;99.90
31133;DHT22;17779;50.942;4.026;2023-08-31T05:08:31;13.10;99.90
31133;DHT22;17779;50.942;4.026;2023-08-31T05:10:56;13.10;99.90
31133;DHT22;17779;50.942;4.026;2023-08-31T05:13:22;13.20;99.90
31133;DHT22;17779;50.942;4.026;2023-08-31T05:15:47;13.30;99.90
31133;DHT22;17779;50.942;4.026;2023-08-31T05:18:13;13.20;99.90
31133;DHT22;17779;50.942;4.026;2023-08-31T05:20:39;13.20;99.90
31133;DHT22;17779;50.942;4.026;2023-08-31T05:23:04;13.10;99.90
31133;DHT22;17779;50.942;4.026;2023-08-31T05:25:30;13.20;99.90
31133;DHT22;17779;50.942;4.026;2023-08-31T05:27:55;13.10;99.90
31133;DHT22;17779;50.942;4.026;2023-08-31T05:30:21;13.10;99.90
31133;DHT22;17779;50.942;4.026;2023-08-31T05:32:49;13.20;99.90
31133;DHT22;17779;50.942;4.026;2023-08-31T05:35:15;13.20;99.90
31133;DHT22;17779;50.942;4.026;2023-08-31T05:37:41;13.20;99.90
31133;DHT22;17779;50.942;4.026;2023-08-31T05:40:07;13.20;99.90
31133;DHT22;17779;50.942;4.026;2023-08-31T05:42:35;13.40;99.90
31133;DHT22;17779;50.942;4.026;2023-08-31T05:45:01;13.30;99.90
31133;DHT22;17779;50.942;4.026;2023-08-31T05:47:28;13.30;99.90
31133;DHT22;17779;50.942;4.026;2023-08-31T05:49:53;13.30;99.90
31133;DHT22;17779;50.942;4.026;2023-08-31T05:52:19;13.40;99.90
31133;DHT22;17779;50.942;4.026;2023-08-31T05:54:45;13.40;99.90
31133;DHT22;17779;50.942;4.026;2023-08-31T05:57:10;13.50;99.90
31133;DHT22;17779;50.942;4.026;2023-08-31T05:59:36;13.50;99.90
31133;DHT22;17779;50.942;4.026;2023-08-31T06:02:02;13.40;99.90
31133;DHT22;17779;50.942;4.026;2023-08-31T06:04:29;13.40;99.90
31133;DHT22;17779;50.942;4.026;2023-08-31T06:06:56;13.40;99.90
31133;DHT22;17779;50.942;4.026;2023-08-31T06:09:22;13.50;99.90
31133;DHT22;17779;50.942;4.026;2023-08-31T06:11:47;13.60;99.90
31133;DHT22;17779;50.942;4.026;2023-08-31T06:14:13;13.60;99.90
31133;DHT22;17779;50.942;4.026;2023-08-31T06:16:38;13.60;99.90
31133;DHT22;17779;50.942;4.026;2023-08-31T06:19:04;13.60;99.90
31133;DHT22;17779;50.942;4.026;2023-08-31T06:21:30;13.60;99.90
31133;DHT22;17779;50.942;4.026;2023-08-31T06:23:56;13.70;99.90
31133;DHT22;17779;50.942;4.026;2023-08-31T06:26:22;13.80;99.90
31133;DHT22;17779;50.942;4.026;2023-08-31T06:28:48;13.90;99.90
31133;DHT22;17779;50.942;4.026;2023-08-31T06:31:13;14.00;99.90
31133;DHT22;17779;50.942;4.026;2023-08-31T06:33:39;14.10;99.90
31133;DHT22;17779;50.942;4.026;2023-08-31T06:36:04;14.10;99.90
31133;DHT22;17779;50.942;4.026;2023-08-31T06:38:31;14.10;99.90
31133;DHT22;17779;50.942;4.026;2023-08-31T06:40:57;14.20;99.90
31133;DHT22;17779;50.942;4.026;2023-08-31T06:43:24;14.20;99.90
31133;DHT22;17779;50.942;4.026;2023-08-31T06:45:52;14.30;99.90
31133;DHT22;17779;50.942;4.026;2023-08-31T06:48:18;14.60;99.90
31133;DHT22;17779;50.942;4.026;2023-08-31T06:50:43;14.60;99.90
31133;DHT22;17779;50.942;4.026;2023-08-31T06:53:10;14.70;99.90
31133;DHT22;17779;50.942;4.026;2023-08-31T06:55:36;14.80;99.90
31133;DHT22;17779;50.942;4.026;2023-08-31T06:58:01;15.00;99.90
31133;DHT22;17779;50.942;4.026;2023-08-31T07:00:28;15.20;99.90
31133;DHT22;17779;50.942;4.026;2023-08-31T07:02:53;15.40;99.90
31133;DHT22;17779;50.942;4.026;2023-08-31T07:05:19;15.50;99.90
31133;DHT22;17779;50.942;4.026;2023-08-31T07:07:52;15.70;99.90
31133;DHT22;17779;50.942;4.026;2023-08-31T07:10:18;15.80;99.90
31133;DHT22;17779;50.942;4.026;2023-08-31T07:12:44;15.90;99.90
31133;DHT22;17779;50.942;4.026;2023-08-31T07:15:10;15.90;99.90
31133;DHT22;17779;50.942;4.026;2023-08-31T07:17:36;15.90;99.90
31133;DHT22;17779;50.942;4.026;2023-08-31T07:20:02;16.20;99.90
31133;DHT22;17779;50.942;4.026;2023-08-31T07:22:32;16.20;99.90
31133;DHT22;17779;50.942;4.026;2023-08-31T07:24:59;16.50;99.90
31133;DHT22;17779;50.942;4.026;2023-08-31T07:27:25;17.40;99.90
31133;DHT22;17779;50.942;4.026;2023-08-31T07:29:54;18.30;99.90
31133;DHT22;17779;50.942;4.026;2023-08-31T07:32:20;19.10;99.90
31133;DHT22;17779;50.942;4.026;2023-08-31T07:34:48;20.30;99.90
31133;DHT22;17779;50.942;4.026;2023-08-31T07:37:14;22.10;99.90
31133;DHT22;17779;50.942;4.026;2023-08-31T07:39:40;22.80;99.90
31133;DHT22;17779;50.942;4.026;2023-08-31T07:42:05;23.60;99.90
31133;DHT22;17779;50.942;4.026;2023-08-31T07:44:31;23.00;99.90
31133;DHT22;17779;50.942;4.026;2023-08-31T07:46:57;23.20;99.90
31133;DHT22;17779;50.942;4.026;2023-08-31T07:49:23;23.10;99.90
31133;DHT22;17779;50.942;4.026;2023-08-31T07:51:49;24.10;99.90
31133;DHT22;17779;50.942;4.026;2023-08-31T07:54:21;25.10;99.90
31133;DHT22;17779;50.942;4.026;2023-08-31T07:56:46;26.60;99.90
31133;DHT22;17779;50.942;4.026;2023-08-31T07:59:12;26.40;99.90
31133;DHT22;17779;50.942;4.026;2023-08-31T08:01:38;26.60;99.90
31133;DHT22;17779;50.942;4.026;2023-08-31T08:04:03;26.70;99.90
31133;DHT22;17779;50.942;4.026;2023-08-31T08:06:29;26.30;99.90
31133;DHT22;17779;50.942;4.026;2023-08-31T08:08:55;27.60;99.90
31133;DHT22;17779;50.942;4.026;2023-08-31T08:11:21;27.80;99.90
31133;DHT22;17779;50.942;4.026;2023-08-31T08:13:47;28.50;99.90
31133;DHT22;17779;50.942;4.026;2023-08-31T08:16:13;28.20;99.90
31133;DHT22;17779;50.942;4.026;2023-08-31T08:18:40;27.00;99.90
31133;DHT22;17779;50.942;4.026;2023-08-31T08:21:05;27.30;99.90
31133;DHT22;17779;50.942;4.026;2023-08-31T08:23:31;27.40;99.90
31133;DHT22;17779;50.942;4.026;2023-08-31T08:25:57;26.70;99.90
31133;DHT22;17779;50.942;4.026;2023-08-31T08:28:25;26.60;99.90
31133;DHT22;17779;50.942;4.026;2023-08-31T08:30:50;28.20;99.90
31133;DHT22;17779;50.942;4.026;2023-08-31T08:33:16;28.40;99.90
31133;DHT22;17779;50.942;4.026;2023-08-31T08:35:42;27.70;99.90
31133;DHT22;17779;50.942;4.026;2023-08-31T08:38:07;29.30;99.90
31133;DHT22;17779;50.942;4.026;2023-08-31T08:40:34;28.80;99.90
31133;DHT22;17779;50.942;4.026;2023-08-31T08:43:05;28.00;99.90
31133;DHT22;17779;50.942;4.026;2023-08-31T08:45:35;28.70;99.90
31133;DHT22;17779;50.942;4.026;2023-08-31T08:48:05;29.20;99.90
31133;DHT22;17779;50.942;4.026;2023-08-31T08:50:31;29.30;99.90
31133;DHT22;17779;50.942;4.026;2023-08-31T08:52:57;30.20;99.00
31133;DHT22;17779;50.942;4.026;2023-08-31T08:55:23;30.20;98.50
31133;DHT22;17779;50.942;4.026;2023-08-31T08:57:48;29.10;99.50
31133;DHT22;17779;50.942;4.026;2023-08-31T09:00:14;28.30;99.90
31133;DHT22;17779;50.942;4.026;2023-08-31T09:02:41;28.20;99.90
31133;DHT22;17779;50.942;4.026;2023-08-31T09:05:07;28.30;99.90
31133;DHT22;17779;50.942;4.026;2023-08-31T09:07:36;28.70;99.90
31133;DHT22;17779;50.942;4.026;2023-08-31T09:10:03;28.30;99.90
31133;DHT22;17779;50.942;4.026;2023-08-31T09:12:29;29.20;99.90
31133;DHT22;17779;50.942;4.026;2023-08-31T09:15:01;28.80;99.20
31133;DHT22;17779;50.942;4.026;2023-08-31T09:17:37;29.00;99.90
31133;DHT22;17779;50.942;4.026;2023-08-31T09:20:03;28.90;99.90
31133;DHT22;17779;50.942;4.026;2023-08-31T09:22:29;28.80;99.30
31133;DHT22;17779;50.942;4.026;2023-08-31T09:24:56;30.00;98.70
31133;DHT22;17779;50.942;4.026;2023-08-31T09:27:22;30.80;96.80
31133;DHT22;17779;50.942;4.026;2023-08-31T09:29:50;30.20;97.10
31133;DHT22;17779;50.942;4.026;2023-08-31T09:32:21;30.00;97.40
31133;DHT22;17779;50.942;4.026;2023-08-31T09:34:47;30.30;96.60
31133;DHT22;17779;50.942;4.026;2023-08-31T09:37:15;29.00;97.40
31133;DHT22;17779;50.942;4.026;2023-08-31T09:39:41;29.50;97.30
31133;DHT22;17779;50.942;4.026;2023-08-31T09:42:07;29.60;96.70
31133;DHT22;17779;50.942;4.026;2023-08-31T09:44:33;29.50;97.00
31133;DHT22;17779;50.942;4.026;2023-08-31T09:46:58;29.40;96.70
31133;DHT22;17779;50.942;4.026;2023-08-31T09:49:24;29.30;97.20
31133;DHT22;17779;50.942;4.026;2023-08-31T09:51:51;29.00;98.20
31133;DHT22;17779;50.942;4.026;2023-08-31T09:54:17;28.50;96.80
31133;DHT22;17779;50.942;4.026;2023-08-31T09:56:44;28.20;98.60
31133;DHT22;17779;50.942;4.026;2023-08-31T09:59:11;28.40;98.20
31133;DHT22;17779;50.942;4.026;2023-08-31T10:01:37;29.20;97.70
31133;DHT22;17779;50.942;4.026;2023-08-31T10:04:03;30.30;96.50
31133;DHT22;17779;50.942;4.026;2023-08-31T10:06:29;31.00;94.40
31133;DHT22;17779;50.942;4.026;2023-08-31T10:08:55;28.70;95.90
31133;DHT22;17779;50.942;4.026;2023-08-31T10:11:21;27.70;97.60
31133;DHT22;17779;50.942;4.026;2023-08-31T10:13:47;28.10;97.90
31133;DHT22;17779;50.942;4.026;2023-08-31T10:16:14;29.10;96.70
31133;DHT22;17779;50.942;4.026;2023-08-31T10:18:41;28.30;96.70
31133;DHT22;17779;50.942;4.026;2023-08-31T10:21:07;29.00;96.50
31133;DHT22;17779;50.942;4.026;2023-08-31T10:23:34;28.60;96.70
31133;DHT22;17779;50.942;4.026;2023-08-31T10:26:02;27.50;97.80
31133;DHT22;17779;50.942;4.026;2023-08-31T10:28:29;25.90;99.90
31133;DHT22;17779;50.942;4.026;2023-08-31T10:31:08;24.90;99.90
31133;DHT22;17779;50.942;4.026;2023-08-31T10:33:39;25.00;99.90
31133;DHT22;17779;50.942;4.026;2023-08-31T10:36:08;24.60;99.90
31133;DHT22;17779;50.942;4.026;2023-08-31T10:38:34;25.30;99.90
31133;DHT22;17779;50.942;4.026;2023-08-31T10:41:16;25.90;99.90
31133;DHT22;17779;50.942;4.026;2023-08-31T10:48:51;26.30;99.90
31133;DHT22;17779;50.942;4.026;2023-08-31T10:51:17;25.70;99.90
31133;DHT22;17779;50.942;4.026;2023-08-31T10:53:45;25.90;99.90
31133;DHT22;17779;50.942;4.026;2023-08-31T10:56:11;24.90;99.90
31133;DHT22;17779;50.942;4.026;2023-08-31T10:58:36;24.90;99.90
31133;DHT22;17779;50.942;4.026;2023-08-31T11:01:02;24.10;99.90
31133;DHT22;17779;50.942;4.026;2023-08-31T11:03:29;24.80;99.90
31133;DHT22;17779;50.942;4.026;2023-08-31T11:05:55;25.00;99.90
31133;DHT22;17779;50.942;4.026;2023-08-31T11:08:24;26.40;99.20
31133;DHT22;17779;50.942;4.026;2023-08-31T11:10:50;27.00;96.00
31133;DHT22;17779;50.942;4.026;2023-08-31T11:13:18;27.10;95.50
31133;DHT22;17779;50.942;4.026;2023-08-31T11:15:46;27.20;96.90
31133;DHT22;17779;50.942;4.026;2023-08-31T11:18:12;27.00;96.80
31133;DHT22;17779;50.942;4.026;2023-08-31T11:20:40;26.60;97.40
31133;DHT22;17779;50.942;4.026;2023-08-31T11:23:06;26.70;98.10
31133;DHT22;17779;50.942;4.026;2023-08-31T11:25:31;26.70;98.20
31133;DHT22;17779;50.942;4.026;2023-08-31T11:27:58;26.90;98.10
31133;DHT22;17779;50.942;4.026;2023-08-31T11:30:28;25.50;98.90
31133;DHT22;17779;50.942;4.026;2023-08-31T11:32:54;24.80;99.90
31133;DHT22;17779;50.942;4.026;2023-08-31T11:35:24;23.80;99.90
31133;DHT22;17779;50.942;4.026;2023-08-31T11:37:50;23.40;99.90
31133;DHT22;17779;50.942;4.026;2023-08-31T11:40:16;22.90;99.90
31133;DHT22;17779;50.942;4.026;2023-08-31T11:42:42;22.70;99.90
31133;DHT22;17779;50.942;4.026;2023-08-31T11:45:09;22.70;99.90
31133;DHT22;17779;50.942;4.026;2023-08-31T11:47:35;22.70;99.90
31133;DHT22;17779;50.942;4.026;2023-08-31T11:50:01;22.90;99.90
31133;DHT22;17779;50.942;4.026;2023-08-31T11:52:32;22.80;99.90
31133;DHT22;17779;50.942;4.026;2023-08-31T11:54:58;22.30;99.90
31133;DHT22;17779;50.942;4.026;2023-08-31T11:57:27;22.10;99.90
31133;DHT22;17779;50.942;4.026;2023-08-31T11:59:55;22.50;99.90
31133;DHT22;17779;50.942;4.026;2023-08-31T12:02:22;22.60;99.90
31133;DHT22;17779;50.942;4.026;2023-08-31T12:04:47;22.40;99.90
31133;DHT22;17779;50.942;4.026;2023-08-31T12:07:16;22.40;99.90
31133;DHT22;17779;50.942;4.026;2023-08-31T12:09:42;22.70;99.90
31133;DHT22;17779;50.942;4.026;2023-08-31T12:12:13;22.60;99.90
31133;DHT22;17779;50.942;4.026;2023-08-31T12:14:39;22.80;99.90
31133;DHT22;17779;50.942;4.026;2023-08-31T12:17:08;22.70;99.90
31133;DHT22;17779;50.942;4.026;2023-08-31T12:19:36;22.10;99.90
31133;DHT22;17779;50.942;4.026;2023-08-31T12:22:01;21.70;99.90
31133;DHT22;17779;50.942;4.026;2023-08-31T12:24:27;21.50;99.90
31133;DHT22;17779;50.942;4.026;2023-08-31T12:26:53;21.60;99.90
31133;DHT22;17779;50.942;4.026;2023-08-31T12:29:19;21.90;99.90
31133;DHT22;17779;50.942;4.026;2023-08-31T12:31:45;21.90;99.90
31133;DHT22;17779;50.942;4.026;2023-08-31T12:34:11;21.80;99.90
31133;DHT22;17779;50.942;4.026;2023-08-31T12:36:37;21.90;99.90
31133;DHT22;17779;50.942;4.026;2023-08-31T12:39:04;22.10;99.90
31133;DHT22;17779;50.942;4.026;2023-08-31T12:41:33;22.10;99.90
31133;DHT22;17779;50.942;4.026;2023-08-31T12:43:58;22.20;99.90
31133;DHT22;17779;50.942;4.026;2023-08-31T12:46:24;21.80;99.90
31133;DHT22;17779;50.942;4.026;2023-08-31T12:48:50;22.00;99.90
31133;DHT22;17779;50.942;4.026;2023-08-31T12:51:16;22.10;99.90
31133;DHT22;17779;50.942;4.026;2023-08-31T12:53:42;22.00;99.90
31133;DHT22;17779;50.942;4.026;2023-08-31T12:56:09;21.80;99.90
31133;DHT22;17779;50.942;4.026;2023-08-31T12:58:36;21.70;99.90
31133;DHT22;17779;50.942;4.026;2023-08-31T13:01:01;22.00;99.90
31133;DHT22;17779;50.942;4.026;2023-08-31T13:03:27;22.20;99.90
31133;DHT22;17779;50.942;4.026;2023-08-31T13:05:53;22.10;99.90
31133;DHT22;17779;50.942;4.026;2023-08-31T13:08:19;22.30;99.90
31133;DHT22;17779;50.942;4.026;2023-08-31T13:10:50;22.60;99.90
31133;DHT22;17779;50.942;4.026;2023-08-31T13:13:16;23.00;99.90
31133;DHT22;17779;50.942;4.026;2023-08-31T13:15:42;22.80;99.90
31133;DHT22;17779;50.942;4.026;2023-08-31T13:18:07;22.50;99.90
31133;DHT22;17779;50.942;4.026;2023-08-31T13:20:33;22.50;99.90
31133;DHT22;17779;50.942;4.026;2023-08-31T13:23:01;22.60;99.90
31133;DHT22;17779;50.942;4.026;2023-08-31T13:25:28;22.70;99.90
31133;DHT22;17779;50.942;4.026;2023-08-31T13:27:54;23.00;99.90
31133;DHT22;17779;50.942;4.026;2023-08-31T13:30:19;22.90;99.90
31133;DHT22;17779;50.942;4.026;2023-08-31T13:32:46;22.50;99.90
31133;DHT22;17779;50.942;4.026;2023-08-31T13:35:12;22.60;99.90
31133;DHT22;17779;50.942;4.026;2023-08-31T13:37:38;22.80;99.90
31133;DHT22;17779;50.942;4.026;2023-08-31T13:40:04;22.70;99.90
31133;DHT22;17779;50.942;4.026;2023-08-31T13:42:34;22.60;99.90
31133;DHT22;17779;50.942;4.026;2023-08-31T13:45:06;22.10;99.90
31133;DHT22;17779;50.942;4.026;2023-08-31T13:47:32;22.40;99.90
31133;DHT22;17779;50.942;4.026;2023-08-31T13:49:59;21.80;99.90
31133;DHT22;17779;50.942;4.026;2023-08-31T13:52:24;21.50;99.90
31133;DHT22;17779;50.942;4.026;2023-08-31T13:54:50;21.60;99.90
31133;DHT22;17779;50.942;4.026;2023-08-31T13:57:18;21.80;99.90
31133;DHT22;17779;50.942;4.026;2023-08-31T13:59:44;21.80;99.90
31133;DHT22;17779;50.942;4.026;2023-08-31T14:02:11;21.80;99.90
31133;DHT22;17779;50.942;4.026;2023-08-31T14:07:05;21.80;99.90
31133;DHT22;17779;50.942;4.026;2023-08-31T14:09:33;21.70;99.90
31133;DHT22;17779;50.942;4.026;2023-08-31T14:11:59;21.50;99.90
31133;DHT22;17779;50.942;4.026;2023-08-31T14:14:24;21.70;99.90
31133;DHT22;17779;50.942;4.026;2023-08-31T14:16:50;22.00;99.90
31133;DHT22;17779;50.942;4.026;2023-08-31T14:19:16;21.90;99.90
31133;DHT22;17779;50.942;4.026;2023-08-31T14:24:11;21.50;99.90
31133;DHT22;17779;50.942;4.026;2023-08-31T14:26:40;21.20;99.90
31133;DHT22;17779;50.942;4.026;2023-08-31T14:29:05;21.20;99.90
31133;DHT22;17779;50.942;4.026;2023-08-31T14:34:00;21.20;99.90
31133;DHT22;17779;50.942;4.026;2023-08-31T14:36:27;21.20;99.90
31133;DHT22;17779;50.942;4.026;2023-08-31T14:38:56;21.20;99.90
31133;DHT22;17779;50.942;4.026;2023-08-31T14:41:23;21.30;99.90
31133;DHT22;17779;50.942;4.026;2023-08-31T14:43:49;21.40;99.90
31133;DHT22;17779;50.942;4.026;2023-08-31T14:46:15;21.30;99.90
31133;DHT22;17779;50.942;4.026;2023-08-31T14:48:41;21.00;99.90
31133;DHT22;17779;50.942;4.026;2023-08-31T14:51:06;21.30;99.90
31133;DHT22;17779;50.942;4.026;2023-08-31T14:53:40;21.20;99.90
31133;DHT22;17779;50.942;4.026;2023-08-31T14:56:06;21.10;99.90
31133;DHT22;17779;50.942;4.026;2023-08-31T14:58:33;21.00;99.90
31133;DHT22;17779;50.942;4.026;2023-08-31T15:00:59;21.20;99.90
31133;DHT22;17779;50.942;4.026;2023-08-31T15:03:24;21.40;99.90
31133;DHT22;17779;50.942;4.026;2023-08-31T15:05:50;21.20;99.90
31133;DHT22;17779;50.942;4.026;2023-08-31T15:08:16;21.30;99.90
31133;DHT22;17779;50.942;4.026;2023-08-31T15:10:42;21.20;99.90
31133;DHT22;17779;50.942;4.026;2023-08-31T15:13:09;21.10;99.90
31133;DHT22;17779;50.942;4.026;2023-08-31T15:15:35;20.90;99.90
31133;DHT22;17779;50.942;4.026;2023-08-31T15:18:00;20.80;99.90
31133;DHT22;17779;50.942;4.026;2023-08-31T15:20:26;20.80;99.90
31133;DHT22;17779;50.942;4.026;2023-08-31T15:22:53;20.90;99.90
31133;DHT22;17779;50.942;4.026;2023-08-31T15:25:19;20.80;99.90
31133;DHT22;17779;50.942;4.026;2023-08-31T15:27:44;20.60;99.90
31133;DHT22;17779;50.942;4.026;2023-08-31T15:30:16;20.60;99.90
31133;DHT22;17779;50.942;4.026;2023-08-31T15:32:42;20.70;99.90
31133;DHT22;17779;50.942;4.026;2023-08-31T15:35:07;20.70;99.90
31133;DHT22;17779;50.942;4.026;2023-08-31T15:37:33;20.80;99.90
31133;DHT22;17779;50.942;4.026;2023-08-31T15:39:59;20.90;99.90
31133;DHT22;17779;50.942;4.026;2023-08-31T15:42:26;20.50;99.90
31133;DHT22;17779;50.942;4.026;2023-08-31T15:44:51;20.40;99.90